createdAt,value
2023-01-07T00:00:19.811Z,1006.76
2023-01-07T00:01:19.936Z,1006.80
2023-01-07T00:02:19.951Z,1006.72
2023-01-07T00:03:19.759Z,1006.74
2023-01-07T00:04:20.139Z,1006.75
2023-01-07T00:05:19.600Z,1006.69
2023-01-07T00:06:20.172Z,1006.73
2023-01-07T00:07:20.126Z,1006.69
2023-01-07T00:08:20.350Z,1006.77
2023-01-07T00:09:19.736Z,1006.75
2023-01-07T00:10:19.929Z,1006.68
2023-01-07T00:11:19.791Z,1006.72
2023-01-07T00:12:20.361Z,1006.66
2023-01-07T00:13:20.365Z,1006.63
2023-01-07T00:14:20.378Z,1006.65
2023-01-07T00:15:19.758Z,1006.65
2023-01-07T00:16:20.677Z,1006.61
2023-01-07T00:17:20.343Z,1006.62
2023-01-07T00:18:19.641Z,1006.70
2023-01-07T00:19:19.847Z,1006.71
2023-01-07T00:20:19.500Z,1006.60
2023-01-07T00:21:20.054Z,1006.60
2023-01-07T00:22:19.478Z,1006.67
2023-01-07T00:23:19.478Z,1006.63
2023-01-07T00:24:19.467Z,1006.60
2023-01-07T00:25:19.447Z,1006.60
2023-01-07T00:26:19.504Z,1006.58
2023-01-07T00:27:19.447Z,1006.59
2023-01-07T00:28:19.495Z,1006.57
2023-01-07T00:29:19.499Z,1006.52
2023-01-07T00:30:19.544Z,1006.57
2023-01-07T00:31:19.501Z,1006.53
2023-01-07T00:32:19.465Z,1006.51
2023-01-07T00:33:19.477Z,1006.48
2023-01-07T00:34:19.536Z,1006.50
2023-01-07T00:35:19.394Z,1006.52
2023-01-07T00:36:19.555Z,1006.51
2023-01-07T00:37:19.555Z,1006.48
2023-01-07T00:38:19.715Z,1006.41
2023-01-07T00:39:19.711Z,1006.43
2023-01-07T00:40:19.363Z,1006.52
2023-01-07T00:41:19.398Z,1006.49
2023-01-07T00:42:19.344Z,1006.51
2023-01-07T00:43:19.398Z,1006.43
2023-01-07T00:44:19.340Z,1006.45
2023-01-07T00:45:19.352Z,1006.48
2023-01-07T00:46:19.431Z,1006.46
2023-01-07T00:47:19.357Z,1006.49
2023-01-07T00:48:19.365Z,1006.46
2023-01-07T00:49:19.301Z,1006.42
2023-01-07T00:50:19.303Z,1006.44
2023-01-07T00:51:19.408Z,1006.44
2023-01-07T00:52:19.286Z,1006.44
2023-01-07T00:53:19.328Z,1006.46
2023-01-07T00:54:19.274Z,1006.44
2023-01-07T00:55:19.411Z,1006.45
2023-01-07T00:56:19.416Z,1006.41
2023-01-07T00:57:19.241Z,1006.41
2023-01-07T00:58:19.245Z,1006.44
2023-01-07T00:59:19.229Z,1006.46
2023-01-07T01:00:19.470Z,1006.43
2023-01-07T01:01:19.319Z,1006.40
2023-01-07T01:02:19.307Z,1006.41
2023-01-07T01:03:19.466Z,1006.48
2023-01-07T01:04:19.469Z,1006.42
2023-01-07T01:05:19.402Z,1006.45
2023-01-07T01:06:19.259Z,1006.40
2023-01-07T01:07:19.186Z,1006.41
2023-01-07T01:08:19.566Z,1006.38
2023-01-07T01:09:19.249Z,1006.35
2023-01-07T01:10:19.390Z,1006.38
2023-01-07T01:11:20.629Z,1006.39
2023-01-07T01:12:19.291Z,1006.36
2023-01-07T01:13:19.297Z,1006.42
2023-01-07T01:14:19.351Z,1006.40
2023-01-07T01:15:19.307Z,1006.40
2023-01-07T01:16:19.527Z,1006.41
2023-01-07T01:17:19.196Z,1006.39
2023-01-07T01:18:19.627Z,1006.39
2023-01-07T01:19:19.440Z,1006.33
2023-01-07T01:20:19.158Z,1006.31
2023-01-07T01:21:19.787Z,1006.32
2023-01-07T01:22:19.147Z,1006.29
2023-01-07T01:23:19.797Z,1006.26
2023-01-07T01:24:19.386Z,1006.28
2023-01-07T01:25:19.599Z,1006.27
2023-01-07T01:26:19.128Z,1006.27
2023-01-07T01:27:19.089Z,1006.25
2023-01-07T01:28:20.516Z,1006.25
2023-01-07T01:29:19.255Z,1006.25
2023-01-07T01:30:19.232Z,1006.26
2023-01-07T01:31:19.698Z,1006.23
2023-01-07T01:32:19.854Z,1006.22
2023-01-07T01:33:19.035Z,1006.19
2023-01-07T01:34:19.336Z,1006.29
2023-01-07T01:35:19.276Z,1006.26
2023-01-07T01:36:19.469Z,1006.28
2023-01-07T01:37:19.766Z,1006.27
2023-01-07T01:38:19.054Z,1006.26
2023-01-07T01:39:19.087Z,1006.29
2023-01-07T01:40:19.316Z,1006.31
2023-01-07T01:41:19.181Z,1006.32
2023-01-07T01:42:19.306Z,1006.31
2023-01-07T01:43:20.404Z,1006.31
2023-01-07T01:44:18.943Z,1006.30
2023-01-07T01:45:19.133Z,1006.32
2023-01-07T01:46:18.964Z,1006.27
2023-01-07T01:47:19.061Z,1006.30
2023-01-07T01:48:18.947Z,1006.31
2023-01-07T01:49:19.154Z,1006.30
2023-01-07T01:50:18.914Z,1006.23
2023-01-07T01:51:18.914Z,1006.33
2023-01-07T01:52:19.261Z,1006.22
2023-01-07T01:53:18.893Z,1006.24
2023-01-07T01:54:18.872Z,1006.25
2023-01-07T01:55:18.871Z,1006.23
2023-01-07T01:56:18.896Z,1006.27
2023-01-07T01:57:19.083Z,1006.26
2023-01-07T01:58:18.910Z,1006.30
2023-01-07T01:59:18.920Z,1006.24
2023-01-07T02:00:18.936Z,1006.31
2023-01-07T02:01:19.066Z,1006.30
2023-01-07T02:02:19.023Z,1006.26
2023-01-07T02:03:18.818Z,1006.28
2023-01-07T02:04:18.990Z,1006.27
2023-01-07T02:05:18.978Z,1006.27
2023-01-07T02:06:19.017Z,1006.29
2023-01-07T02:07:19.033Z,1006.26
2023-01-07T02:08:19.050Z,1006.26
2023-01-07T02:09:19.106Z,1006.30
2023-01-07T02:10:18.773Z,1006.25
2023-01-07T02:11:18.774Z,1006.28
2023-01-07T02:12:18.894Z,1006.23
2023-01-07T02:13:18.896Z,1006.27
2023-01-07T02:14:18.732Z,1006.26
2023-01-07T02:15:18.920Z,1006.30
2023-01-07T02:16:18.853Z,1006.23
2023-01-07T02:17:18.731Z,1006.23
2023-01-07T02:18:18.936Z,1006.23
2023-01-07T02:19:18.829Z,1006.26
2023-01-07T02:20:18.725Z,1006.18
2023-01-07T02:21:18.760Z,1006.14
2023-01-07T02:22:18.765Z,1006.20
2023-01-07T02:23:18.685Z,1006.20
2023-01-07T02:24:18.808Z,1006.15
2023-01-07T02:25:18.770Z,1006.13
2023-01-07T02:26:18.875Z,1006.13
2023-01-07T02:27:20.898Z,1006.24
2023-01-07T02:28:18.734Z,1006.11
2023-01-07T02:29:18.989Z,1006.08
2023-01-07T02:30:18.633Z,1006.12
2023-01-07T02:31:18.646Z,1006.11
2023-01-07T02:32:19.123Z,1006.13
2023-01-07T02:33:18.650Z,1006.11
2023-01-07T02:34:19.127Z,1006.11
2023-01-07T02:35:19.067Z,1006.09
2023-01-07T02:36:18.724Z,1006.13
2023-01-07T02:37:18.741Z,1006.15
2023-01-07T02:38:19.363Z,1006.08
2023-01-07T02:39:19.156Z,1006.10
2023-01-07T02:40:18.656Z,1006.15
2023-01-07T02:41:19.372Z,1006.12
2023-01-07T02:42:18.781Z,1006.09
2023-01-07T02:43:18.659Z,1006.07
2023-01-07T02:44:19.112Z,1006.13
2023-01-07T02:45:19.095Z,1006.07
2023-01-07T02:46:18.516Z,1006.11
2023-01-07T02:47:18.531Z,1006.07
2023-01-07T02:48:18.510Z,1006.06
2023-01-07T02:49:18.536Z,1006.05
2023-01-07T02:50:18.509Z,1006.08
2023-01-07T02:51:18.520Z,1006.05
2023-01-07T02:52:18.532Z,1006.02
2023-01-07T02:53:18.492Z,1006.00
2023-01-07T02:54:18.468Z,1006.00
2023-01-07T02:55:18.484Z,1005.98
2023-01-07T02:56:18.457Z,1006.00
2023-01-07T02:57:18.563Z,1006.00
2023-01-07T02:58:18.447Z,1005.97
2023-01-07T02:59:18.434Z,1005.90
2023-01-07T03:00:18.481Z,1005.92
2023-01-07T03:01:18.646Z,1005.96
2023-01-07T03:02:18.456Z,1005.93
2023-01-07T03:03:18.561Z,1005.93
2023-01-07T03:04:18.450Z,1005.94
2023-01-07T03:05:18.617Z,1005.90
2023-01-07T03:06:18.629Z,1005.87
2023-01-07T03:07:18.437Z,1005.88
2023-01-07T03:08:18.629Z,1005.81
2023-01-07T03:09:18.358Z,1005.86
2023-01-07T03:10:18.348Z,1005.84
2023-01-07T03:11:18.648Z,1005.82
2023-01-07T03:12:18.661Z,1005.85
2023-01-07T03:13:18.428Z,1005.77
2023-01-07T03:14:18.704Z,1005.75
2023-01-07T03:15:18.680Z,1005.79
2023-01-07T03:16:18.683Z,1005.75
2023-01-07T03:17:18.691Z,1005.74
2023-01-07T03:18:18.307Z,1005.69
2023-01-07T03:19:18.721Z,1005.71
2023-01-07T03:20:18.306Z,1005.74
2023-01-07T03:21:18.715Z,1005.68
2023-01-07T03:22:18.443Z,1005.72
2023-01-07T03:23:18.569Z,1005.67
2023-01-07T03:24:18.861Z,1005.64
2023-01-07T03:25:18.271Z,1005.67
2023-01-07T03:26:18.285Z,1005.66
2023-01-07T03:27:18.295Z,1005.65
2023-01-07T03:28:18.453Z,1005.66
2023-01-07T03:29:18.674Z,1005.68
2023-01-07T03:30:18.285Z,1005.68
2023-01-07T03:31:18.420Z,1005.68
2023-01-07T03:32:18.265Z,1005.66
2023-01-07T03:33:18.599Z,1005.71
2023-01-07T03:34:18.791Z,1005.65
2023-01-07T03:35:18.514Z,1005.67
2023-01-07T03:36:18.200Z,1005.61
2023-01-07T03:37:18.209Z,1005.68
2023-01-07T03:38:18.231Z,1005.64
2023-01-07T03:39:18.164Z,1005.64
2023-01-07T03:40:18.178Z,1005.57
2023-01-07T03:41:18.212Z,1005.52
2023-01-07T03:42:18.362Z,1005.56
2023-01-07T03:43:18.435Z,1005.52
2023-01-07T03:44:18.376Z,1005.46
2023-01-07T03:45:18.459Z,1005.54
2023-01-07T03:46:18.190Z,1005.48
2023-01-07T03:47:19.601Z,1005.47
2023-01-07T03:48:18.164Z,1005.39
2023-01-07T03:49:18.151Z,1005.43
2023-01-07T03:50:18.220Z,1005.38
2023-01-07T03:51:18.220Z,1005.39
2023-01-07T03:52:18.140Z,1005.37
2023-01-07T03:53:18.245Z,1005.29
2023-01-07T03:54:18.150Z,1005.28
2023-01-07T03:55:18.453Z,1005.30
2023-01-07T03:56:18.696Z,1005.32
2023-01-07T03:57:18.258Z,1005.31
2023-01-07T03:58:18.217Z,1005.28
2023-01-07T03:59:18.082Z,1005.28
2023-01-07T04:00:18.283Z,1005.37
2023-01-07T04:01:18.322Z,1005.27
2023-01-07T04:02:19.498Z,1005.28
2023-01-07T04:03:18.655Z,1005.22
2023-01-07T04:04:18.133Z,1005.32
2023-01-07T04:05:18.107Z,1005.25
2023-01-07T04:06:18.738Z,1005.28
2023-01-07T04:07:18.833Z,1005.24
2023-01-07T04:08:18.607Z,1005.25
2023-01-07T04:09:17.998Z,1005.22
2023-01-07T04:10:18.986Z,1005.24
2023-01-07T04:11:18.856Z,1005.25
2023-01-07T04:12:18.156Z,1005.20
2023-01-07T04:13:18.078Z,1005.19
2023-01-07T04:14:17.964Z,1005.20
2023-01-07T04:15:17.965Z,1005.17
2023-01-07T04:16:18.083Z,1005.16
2023-01-07T04:17:17.986Z,1005.11
2023-01-07T04:18:18.108Z,1005.06
2023-01-07T04:19:18.067Z,1005.04
2023-01-07T04:20:18.009Z,1005.09
2023-01-07T04:21:17.905Z,1005.03
2023-01-07T04:22:18.224Z,1005.04
2023-01-07T04:23:18.119Z,1004.99
2023-01-07T04:24:18.315Z,1005.03
2023-01-07T04:25:18.247Z,1004.97
2023-01-07T04:26:17.884Z,1004.91
2023-01-07T04:27:17.854Z,1004.94
2023-01-07T04:28:17.857Z,1004.94
2023-01-07T04:29:20.848Z,1004.96
2023-01-07T04:30:17.934Z,1004.96
2023-01-07T04:31:18.308Z,1004.99
2023-01-07T04:32:17.885Z,1004.96
2023-01-07T04:33:17.866Z,1004.94
2023-01-07T04:35:43.789Z,1004.86
2023-01-07T04:36:43.785Z,1004.88
2023-01-07T04:37:44.607Z,1004.88
2023-01-07T04:38:44.615Z,1004.87
2023-01-07T04:39:44.359Z,1004.86
2023-01-07T04:40:43.758Z,1004.80
2023-01-07T04:41:43.768Z,1004.79
2023-01-07T04:42:43.997Z,1004.84
2023-01-07T04:43:43.781Z,1004.80
2023-01-07T04:44:43.780Z,1004.85
2023-01-07T04:45:44.211Z,1004.84
2023-01-07T04:46:43.791Z,1004.79
2023-01-07T04:47:43.732Z,1004.83
2023-01-07T04:48:44.204Z,1004.81
2023-01-07T04:49:44.229Z,1004.84
2023-01-07T04:50:44.425Z,1004.79
2023-01-07T04:51:43.682Z,1004.78
2023-01-07T04:52:43.674Z,1004.70
2023-01-07T04:53:43.834Z,1004.75
2023-01-07T04:54:43.841Z,1004.78
2023-01-07T04:55:46.223Z,1004.78
2023-01-07T04:56:43.854Z,1004.75
2023-01-07T04:57:43.673Z,1004.75
2023-01-07T04:58:43.867Z,1004.76
2023-01-07T04:59:43.879Z,1004.71
2023-01-07T05:00:43.943Z,1004.73
2023-01-07T05:01:45.200Z,1004.76
2023-01-07T05:02:44.168Z,1004.72
2023-01-07T05:03:43.690Z,1004.73
2023-01-07T05:04:44.351Z,1004.72
2023-01-07T05:05:43.943Z,1004.74
2023-01-07T05:06:44.126Z,1004.73
2023-01-07T05:07:44.341Z,1004.76
2023-01-07T05:08:44.036Z,1004.76
2023-01-07T05:09:44.534Z,1004.76
2023-01-07T05:10:43.751Z,1004.75
2023-01-07T05:11:44.208Z,1004.78
2023-01-07T05:12:43.969Z,1004.78
2023-01-07T05:13:44.396Z,1004.74
2023-01-07T05:14:43.774Z,1004.70
2023-01-07T05:15:43.983Z,1004.68
2023-01-07T05:16:43.872Z,1004.61
2023-01-07T05:17:43.589Z,1004.66
2023-01-07T05:18:44.007Z,1004.62
2023-01-07T05:19:43.817Z,1004.56
2023-01-07T05:20:43.493Z,1004.66
2023-01-07T05:21:43.834Z,1004.70
2023-01-07T05:22:43.882Z,1004.61
2023-01-07T05:23:44.299Z,1004.63
2023-01-07T05:24:43.850Z,1004.60
2023-01-07T05:25:43.639Z,1004.60
2023-01-07T05:26:43.848Z,1004.63
2023-01-07T05:27:43.455Z,1004.60
2023-01-07T05:28:43.462Z,1004.59
2023-01-07T05:29:43.563Z,1004.59
2023-01-07T05:30:43.416Z,1004.54
2023-01-07T05:31:43.491Z,1004.61
2023-01-07T05:32:43.507Z,1004.53
2023-01-07T05:33:43.519Z,1004.62
2023-01-07T05:34:43.505Z,1004.64
2023-01-07T05:35:43.464Z,1004.55
2023-01-07T05:36:43.511Z,1004.59
2023-01-07T05:37:43.422Z,1004.58
2023-01-07T05:38:43.525Z,1004.55
2023-01-07T05:39:43.554Z,1004.49
2023-01-07T05:40:43.537Z,1004.53
2023-01-07T05:41:43.343Z,1004.49
2023-01-07T05:42:43.556Z,1004.47
2023-01-07T05:43:43.556Z,1004.42
2023-01-07T05:44:43.582Z,1004.46
2023-01-07T05:45:43.574Z,1004.45
2023-01-07T05:46:43.587Z,1004.44
2023-01-07T05:47:43.587Z,1004.44
2023-01-07T05:48:43.323Z,1004.39
2023-01-07T05:49:43.751Z,1004.42
2023-01-07T05:50:43.618Z,1004.41
2023-01-07T05:51:43.276Z,1004.41
2023-01-07T05:52:43.288Z,1004.37
2023-01-07T05:53:43.270Z,1004.43
2023-01-07T05:54:43.266Z,1004.34
2023-01-07T05:55:43.245Z,1004.33
2023-01-07T05:56:43.271Z,1004.32
2023-01-07T05:57:43.315Z,1004.31
2023-01-07T05:58:43.341Z,1004.33
2023-01-07T05:59:43.221Z,1004.29
2023-01-07T06:00:43.271Z,1004.34
2023-01-07T06:01:43.413Z,1004.34
2023-01-07T06:02:43.461Z,1004.32
2023-01-07T06:03:43.235Z,1004.30
2023-01-07T06:04:43.466Z,1004.28
2023-01-07T06:05:43.194Z,1004.29
2023-01-07T06:06:43.171Z,1004.34
2023-01-07T06:07:43.205Z,1004.36
2023-01-07T06:08:43.334Z,1004.37
2023-01-07T06:09:43.201Z,1004.36
2023-01-07T06:10:43.379Z,1004.31
2023-01-07T06:11:43.362Z,1004.36
2023-01-07T06:12:43.139Z,1004.32
2023-01-07T06:13:43.359Z,1004.24
2023-01-07T06:14:43.199Z,1004.24
2023-01-07T06:15:43.563Z,1004.22
2023-01-07T06:16:43.381Z,1004.30
2023-01-07T06:17:43.193Z,1004.21
2023-01-07T06:18:43.395Z,1004.22
2023-01-07T06:19:44.560Z,1004.29
2023-01-07T06:20:43.518Z,1004.20
2023-01-07T06:21:43.574Z,1004.26
2023-01-07T06:22:43.227Z,1004.20
2023-01-07T06:23:43.045Z,1004.18
2023-01-07T06:24:43.241Z,1004.12
2023-01-07T06:25:43.436Z,1004.11
2023-01-07T06:26:43.652Z,1004.16
2023-01-07T06:27:43.279Z,1004.12
2023-01-07T06:28:43.611Z,1004.09
2023-01-07T06:29:43.605Z,1004.11
2023-01-07T06:30:43.608Z,1004.10
2023-01-07T06:31:43.267Z,1004.09
2023-01-07T06:32:43.686Z,1004.06
2023-01-07T06:33:43.885Z,1004.06
2023-01-07T06:34:43.212Z,1004.08
2023-01-07T06:35:42.996Z,1004.05
2023-01-07T06:36:43.341Z,1004.06
2023-01-07T06:37:42.981Z,1004.04
2023-01-07T06:38:43.235Z,1004.12
2023-01-07T06:39:42.957Z,1004.04
2023-01-07T06:40:43.994Z,1004.06
2023-01-07T06:41:42.936Z,1004.08
2023-01-07T06:42:42.963Z,1004.11
2023-01-07T06:43:42.944Z,1004.08
2023-01-07T06:44:42.963Z,1004.11
2023-01-07T06:45:42.960Z,1004.08
2023-01-07T06:46:43.116Z,1004.11
2023-01-07T06:47:43.205Z,1004.04
2023-01-07T06:48:43.202Z,1004.04
2023-01-07T06:49:42.981Z,1004.02
2023-01-07T06:50:43.213Z,1004.05
2023-01-07T06:51:43.199Z,1003.98
2023-01-07T06:52:42.861Z,1004.00
2023-01-07T06:53:43.031Z,1004.04
2023-01-07T06:54:42.840Z,1004.02
2023-01-07T06:55:42.841Z,1004.02
2023-01-07T06:56:42.830Z,1003.94
2023-01-07T06:57:42.864Z,1003.95
2023-01-07T06:58:42.853Z,1003.99
2023-01-07T06:59:42.808Z,1004.01
2023-01-07T07:00:43.696Z,1004.08
2023-01-07T07:01:45.042Z,1004.03
2023-01-07T07:02:42.823Z,1004.09
2023-01-07T07:03:42.825Z,1004.03
2023-01-07T07:04:42.901Z,1004.11
2023-01-07T07:05:42.851Z,1004.05
2023-01-07T07:06:42.860Z,1004.02
2023-01-07T07:07:42.762Z,1004.05
2023-01-07T07:08:42.889Z,1004.13
2023-01-07T07:09:42.738Z,1004.12
2023-01-07T07:10:42.928Z,1004.04
2023-01-07T07:11:42.722Z,1004.06
2023-01-07T07:12:42.949Z,1003.95
2023-01-07T07:13:42.740Z,1004.04
2023-01-07T07:14:42.958Z,1004.13
2023-01-07T07:15:42.991Z,1004.04
2023-01-07T07:16:42.999Z,1003.97
2023-01-07T07:17:42.998Z,1004.02
2023-01-07T07:18:43.009Z,1004.05
2023-01-07T07:19:42.676Z,1003.98
2023-01-07T07:20:42.801Z,1004.07
2023-01-07T07:21:42.808Z,1004.09
2023-01-07T07:22:42.815Z,1004.04
2023-01-07T07:23:42.826Z,1004.01
2023-01-07T07:24:42.629Z,1004.04
2023-01-07T07:25:43.082Z,1004.00
2023-01-07T07:26:42.835Z,1003.98
2023-01-07T07:27:43.052Z,1003.98
2023-01-07T07:28:42.619Z,1004.03
2023-01-07T07:29:43.072Z,1004.05
2023-01-07T07:30:47.674Z,1003.97
2023-01-07T07:31:43.201Z,1003.99
2023-01-07T07:32:43.184Z,1004.04
2023-01-07T07:33:43.203Z,1004.01
2023-01-07T07:34:42.684Z,1004.01
2023-01-07T07:35:43.214Z,1004.03
2023-01-07T07:36:43.235Z,1004.02
2023-01-07T07:37:42.567Z,1003.99
2023-01-07T07:38:43.263Z,1004.07
2023-01-07T07:39:42.545Z,1003.95
2023-01-07T07:40:42.534Z,1004.00
2023-01-07T07:41:42.555Z,1004.00
2023-01-07T07:43:11.118Z,1003.94
2023-01-07T07:43:42.544Z,1003.96
2023-01-07T07:44:42.622Z,1004.01
2023-01-07T07:45:42.976Z,1003.99
2023-01-07T07:46:42.627Z,1003.95
2023-01-07T07:47:42.480Z,1003.94
2023-01-07T07:48:43.471Z,1003.93
2023-01-07T07:49:42.774Z,1003.97
2023-01-07T07:50:42.789Z,1003.94
2023-01-07T07:51:43.201Z,1003.98
2023-01-07T07:52:42.791Z,1003.97
2023-01-07T07:53:43.386Z,1003.99
2023-01-07T07:54:43.428Z,1003.97
2023-01-07T07:55:42.421Z,1003.98
2023-01-07T07:56:42.439Z,1003.95
2023-01-07T07:57:42.423Z,1003.95
2023-01-07T07:58:42.630Z,1003.97
2023-01-07T07:59:42.428Z,1003.92
2023-01-07T08:00:42.651Z,1003.98
2023-01-07T08:01:42.620Z,1003.97
2023-01-07T08:02:42.661Z,1003.97
2023-01-07T08:03:42.914Z,1003.91
2023-01-07T08:04:42.894Z,1003.88
2023-01-07T08:05:42.699Z,1003.87
2023-01-07T08:06:42.708Z,1003.92
2023-01-07T08:07:42.929Z,1003.91
2023-01-07T08:08:42.701Z,1003.91
2023-01-07T08:09:42.353Z,1003.93
2023-01-07T08:10:42.341Z,1003.89
2023-01-07T08:11:43.127Z,1003.89
2023-01-07T08:12:42.324Z,1003.86
2023-01-07T08:13:42.346Z,1003.85
2023-01-07T08:14:43.873Z,1003.88
2023-01-07T08:15:42.359Z,1003.86
2023-01-07T08:16:42.337Z,1003.86
2023-01-07T08:17:42.275Z,1003.86
2023-01-07T08:18:42.370Z,1003.91
2023-01-07T08:19:42.355Z,1003.90
2023-01-07T08:20:42.388Z,1003.90
2023-01-07T08:21:42.267Z,1003.88
2023-01-07T08:22:42.441Z,1003.85
2023-01-07T08:23:42.402Z,1003.82
2023-01-07T08:24:42.236Z,1003.87
2023-01-07T08:25:42.493Z,1003.77
2023-01-07T08:26:42.433Z,1003.77
2023-01-07T08:27:42.300Z,1003.78
2023-01-07T08:28:42.654Z,1003.72
2023-01-07T08:29:42.633Z,1003.75
2023-01-07T08:30:42.224Z,1003.75
2023-01-07T08:31:42.691Z,1003.70
2023-01-07T08:32:42.263Z,1003.73
2023-01-07T08:33:42.258Z,1003.73
2023-01-07T08:34:42.254Z,1003.71
2023-01-07T08:35:42.143Z,1003.73
2023-01-07T08:36:42.266Z,1003.71
2023-01-07T08:37:42.481Z,1003.64
2023-01-07T08:38:42.497Z,1003.65
2023-01-07T08:39:42.492Z,1003.60
2023-01-07T08:40:42.491Z,1003.58
2023-01-07T08:41:42.301Z,1003.53
2023-01-07T08:42:42.737Z,1003.57
2023-01-07T08:43:42.732Z,1003.51
2023-01-07T08:44:42.732Z,1003.56
2023-01-07T08:45:42.751Z,1003.49
2023-01-07T08:46:42.817Z,1003.51
2023-01-07T08:47:44.049Z,1003.47
2023-01-07T08:48:42.048Z,1003.55
2023-01-07T08:49:42.549Z,1003.50
2023-01-07T08:50:42.564Z,1003.49
2023-01-07T08:51:42.787Z,1003.47
2023-01-07T08:52:42.782Z,1003.46
2023-01-07T08:53:42.185Z,1003.40
2023-01-07T08:54:42.008Z,1003.45
2023-01-07T08:55:42.391Z,1003.42
2023-01-07T08:56:42.911Z,1003.41
2023-01-07T08:57:41.995Z,1003.43
2023-01-07T08:58:42.397Z,1003.43
2023-01-07T08:59:42.026Z,1003.39
2023-01-07T09:00:42.280Z,1003.33
2023-01-07T09:01:42.435Z,1003.36
2023-01-07T09:02:42.507Z,1003.37
2023-01-07T09:03:42.446Z,1003.37
2023-01-07T09:04:42.076Z,1003.27
2023-01-07T09:05:42.671Z,1003.31
2023-01-07T09:06:41.995Z,1003.33
2023-01-07T09:07:42.077Z,1003.27
2023-01-07T09:08:41.916Z,1003.30
2023-01-07T09:09:41.906Z,1003.28
2023-01-07T09:10:42.097Z,1003.27
2023-01-07T09:11:42.086Z,1003.24
2023-01-07T09:12:42.098Z,1003.24
2023-01-07T09:13:42.099Z,1003.21
2023-01-07T09:14:42.109Z,1003.22
2023-01-07T09:15:42.307Z,1003.21
2023-01-07T09:16:42.181Z,1003.25
2023-01-07T09:17:42.326Z,1003.23
2023-01-07T09:18:42.342Z,1003.24
2023-01-07T09:19:42.360Z,1003.24
2023-01-07T09:20:41.945Z,1003.30
2023-01-07T09:21:41.976Z,1003.24
2023-01-07T09:22:42.041Z,1003.23
2023-01-07T09:23:42.003Z,1003.26
2023-01-07T09:24:42.220Z,1003.27
2023-01-07T09:25:42.016Z,1003.29
2023-01-07T09:26:42.213Z,1003.25
2023-01-07T09:27:42.407Z,1003.25
2023-01-07T09:28:41.814Z,1003.25
2023-01-07T09:29:41.795Z,1003.27
2023-01-07T09:30:42.006Z,1003.25
2023-01-07T09:31:42.228Z,1003.19
2023-01-07T09:32:42.012Z,1003.17
2023-01-07T09:33:41.825Z,1003.18
2023-01-07T09:34:41.741Z,1003.16
2023-01-07T09:35:42.062Z,1003.15
2023-01-07T09:36:42.701Z,1003.13
2023-01-07T09:37:42.354Z,1003.08
2023-01-07T09:38:42.463Z,1003.21
2023-01-07T09:39:41.703Z,1003.10
2023-01-07T09:40:41.701Z,1003.12
2023-01-07T09:41:41.681Z,1003.17
2023-01-07T09:42:41.691Z,1003.13
2023-01-07T09:44:00.005Z,1003.11
2023-01-07T09:44:41.718Z,1003.10
2023-01-07T09:45:41.672Z,1003.03
2023-01-07T09:46:41.658Z,1003.11
2023-01-07T09:47:41.706Z,1003.05
2023-01-07T09:48:41.721Z,1003.07
2023-01-07T09:49:41.710Z,1003.07
2023-01-07T09:50:41.729Z,1003.06
2023-01-07T09:51:41.635Z,1003.07
2023-01-07T09:52:41.737Z,1003.04
2023-01-07T09:53:41.739Z,1003.02
2023-01-07T09:54:41.794Z,1003.00
2023-01-07T09:56:10.436Z,1003.03
2023-01-07T09:56:41.609Z,1002.99
2023-01-07T09:57:41.588Z,1003.03
2023-01-07T09:58:41.820Z,1003.00
2023-01-07T09:59:41.608Z,1002.96
2023-01-07T10:00:41.638Z,1002.97
2023-01-07T10:01:41.548Z,1002.98
2023-01-07T10:02:41.635Z,1002.98
2023-01-07T10:03:41.921Z,1003.00
2023-01-07T10:04:41.612Z,1003.01
2023-01-07T10:05:41.611Z,1002.96
2023-01-07T10:06:43.843Z,1002.98
2023-01-07T10:07:41.627Z,1002.97
2023-01-07T10:08:41.628Z,1002.93
2023-01-07T10:09:41.504Z,1002.93
2023-01-07T10:10:41.487Z,1002.93
2023-01-07T10:11:44.027Z,1002.90
2023-01-07T10:12:41.656Z,1002.90
2023-01-07T10:13:41.557Z,1002.95
2023-01-07T10:14:41.668Z,1002.97
2023-01-07T10:15:41.676Z,1002.94
2023-01-07T10:16:41.723Z,1002.91
2023-01-07T10:17:41.454Z,1002.91
2023-01-07T10:18:41.696Z,1002.84
2023-01-07T10:19:41.546Z,1002.87
2023-01-07T10:20:41.708Z,1002.84
2023-01-07T10:21:41.716Z,1002.73
2023-01-07T10:22:41.719Z,1002.73
2023-01-07T10:23:41.415Z,1002.77
2023-01-07T10:24:41.394Z,1002.74
2023-01-07T10:25:41.392Z,1002.73
2023-01-07T10:26:41.408Z,1002.73
2023-01-07T10:27:41.376Z,1002.75
2023-01-07T10:28:41.379Z,1002.69
2023-01-07T10:29:41.572Z,1002.69
2023-01-07T10:30:41.837Z,1002.70
2023-01-07T10:31:41.797Z,1002.68
2023-01-07T10:32:41.798Z,1002.71
2023-01-07T10:33:41.382Z,1002.67
2023-01-07T10:34:41.828Z,1002.67
2023-01-07T10:35:41.891Z,1002.61
2023-01-07T10:36:41.882Z,1002.62
2023-01-07T10:37:41.888Z,1002.57
2023-01-07T10:38:41.894Z,1002.53
2023-01-07T10:39:41.902Z,1002.54
2023-01-07T10:40:41.422Z,1002.55
2023-01-07T10:41:41.700Z,1002.54
2023-01-07T10:42:41.642Z,1002.53
2023-01-07T10:43:41.357Z,1002.52
2023-01-07T10:44:41.860Z,1002.51
2023-01-07T10:45:41.499Z,1002.48
2023-01-07T10:46:42.088Z,1002.42
2023-01-07T10:47:41.252Z,1002.44
2023-01-07T10:48:41.303Z,1002.48
2023-01-07T10:49:41.291Z,1002.37
2023-01-07T10:50:41.214Z,1002.39
2023-01-07T10:51:41.310Z,1002.38
2023-01-07T10:52:41.326Z,1002.39
2023-01-07T10:53:41.313Z,1002.37
2023-01-07T10:54:41.231Z,1002.35
2023-01-07T10:55:41.329Z,1002.28
2023-01-07T10:56:41.364Z,1002.26
2023-01-07T10:57:41.556Z,1002.22
2023-01-07T10:58:41.760Z,1002.27
2023-01-07T10:59:41.157Z,1002.21
2023-01-07T11:00:41.152Z,1002.17
2023-01-07T11:01:41.244Z,1002.20
2023-01-07T11:02:41.253Z,1002.19
2023-01-07T11:03:41.240Z,1002.24
2023-01-07T11:04:41.242Z,1002.14
2023-01-07T11:05:41.387Z,1002.11
2023-01-07T11:06:41.387Z,1002.07
2023-01-07T11:07:41.238Z,1002.00
2023-01-07T11:08:41.128Z,1002.01
2023-01-07T11:09:41.096Z,1001.99
2023-01-07T11:10:41.079Z,1001.92
2023-01-07T11:11:41.087Z,1001.98
2023-01-07T11:12:41.638Z,1001.89
2023-01-07T11:13:41.138Z,1001.93
2023-01-07T11:14:41.055Z,1001.90
2023-01-07T11:15:41.038Z,1001.92
2023-01-07T11:16:41.085Z,1001.92
2023-01-07T11:17:41.059Z,1001.87
2023-01-07T11:18:41.065Z,1001.84
2023-01-07T11:19:41.081Z,1001.78
2023-01-07T11:20:41.004Z,1001.76
2023-01-07T11:21:44.148Z,1001.69
2023-01-07T11:22:41.090Z,1001.70
2023-01-07T11:23:43.734Z,1001.69
2023-01-07T11:24:40.989Z,1001.68
2023-01-07T11:25:40.998Z,1001.72
2023-01-07T11:26:41.012Z,1001.59
2023-01-07T11:27:41.186Z,1001.54
2023-01-07T11:28:40.946Z,1001.51
2023-01-07T11:29:41.209Z,1001.49
2023-01-07T11:30:40.948Z,1001.51
2023-01-07T11:31:40.962Z,1001.41
2023-01-07T11:32:41.278Z,1001.45
2023-01-07T11:34:01.755Z,1001.36
2023-01-07T11:34:41.277Z,1001.41
2023-01-07T11:35:41.276Z,1001.38
2023-01-07T11:36:40.917Z,1001.41
2023-01-07T11:37:40.885Z,1001.36
2023-01-07T11:38:40.874Z,1001.35
2023-01-07T11:39:41.000Z,1001.39
2023-01-07T11:40:40.943Z,1001.33
2023-01-07T11:41:41.019Z,1001.30
2023-01-07T11:42:40.888Z,1001.32
2023-01-07T11:43:41.048Z,1001.26
2023-01-07T11:44:41.103Z,1001.20
2023-01-07T11:45:41.242Z,1001.21
2023-01-07T11:46:41.274Z,1001.11
2023-01-07T11:47:40.906Z,1001.18
2023-01-07T11:48:40.977Z,1001.03
2023-01-07T11:49:40.858Z,1001.04
2023-01-07T11:50:41.499Z,1001.05
2023-01-07T11:51:41.433Z,1000.99
2023-01-07T11:52:41.494Z,1001.00
2023-01-07T11:53:41.295Z,1000.97
2023-01-07T11:54:40.791Z,1000.92
2023-01-07T11:55:40.788Z,1000.93
2023-01-07T11:56:41.311Z,1000.93
2023-01-07T11:57:41.112Z,1000.90
2023-01-07T11:58:41.321Z,1000.78
2023-01-07T11:59:41.588Z,1000.82
2023-01-07T12:00:41.041Z,1000.79
2023-01-07T12:01:40.734Z,1000.77
2023-01-07T12:02:41.128Z,1000.77
2023-01-07T12:03:41.006Z,1000.80
2023-01-07T12:04:40.971Z,1000.74
2023-01-07T12:05:40.751Z,1000.69
2023-01-07T12:06:41.077Z,1000.67